OISA  Abadeh  Airport

Abadeh, Iran

Add Bookmark
ICAO OISA
Type Airport
Status Operational
Latitude
31° 10' 0" N
31.166668
Longitude
52° 40' 0" E
52.666668
Local (GMT +4.5 ) UTC
May 28, 2016 06:34 am May 28, 2016 02:04
Sunrise-Sunset Local UTC
Begin Civil Twilight 05:28 am 00:58
Sunrise 05:55 am 01:25
Sunset 07:57 pm 15:27
End Civil Twilight 08:25 pm 15:55
VFR
VFR
MVFR
MVFR
IFR
IFR
LIFR
LIFR
Unknown
Unavailable

Current Weather

METAR Observed VFR
OISA 280050Z 00000KT CAVOK 12/M12 Q1020 Sat, May 28, 2016 @ 00:50 UTC
(1 Hour, 14 Minutes ago)
Visual Flight Rules
Wind Visibility Conditions
Calm 10 km or more
  • No significant weather
Temperatures Readings Precipitation
Current Temp
12°C
54°F
Dewpoint
-12°C
10°F
Humidity 18%
Altimeter 30.12" Hg
Sea Level Pressure 1,020 mb
Field Elevation
2,004 m
6,575 ft
None Recorded
-
-

CheckWX.com is intended as a tool to help pilots better visualize weather data. It is not intended as a substitute for an official weather briefing obtained from a Flight Service Station. CheckWX.com does not meet the FAA requirements for an official pre-flight weather briefing. Therefore, it's important that pilots still call and obtain an official FSS pre-flight weather briefing.

© 2007-2016 CheckWX.com
02:04:00 UTC